createdAt,value
2022-10-01T00:02:28.050Z,109.60
2022-10-01T00:04:59.670Z,118.60
2022-10-01T00:07:30.946Z,132.00
2022-10-01T00:10:03.120Z,137.25
2022-10-01T00:12:34.165Z,145.80
2022-10-01T00:15:13.321Z,194.75
2022-10-01T00:17:45.224Z,117.80
2022-10-01T00:20:17.158Z,113.00
2022-10-01T00:22:49.176Z,112.80
2022-10-01T00:25:21.033Z,170.80
2022-10-01T00:27:52.590Z,121.60
2022-10-01T00:30:25.660Z,117.40
2022-10-01T00:32:57.122Z,118.20
2022-10-01T00:35:29.048Z,119.00
2022-10-01T00:38:00.197Z,125.40
2022-10-01T00:40:31.519Z,111.00
2022-10-01T00:43:02.522Z,110.60
2022-10-01T00:45:35.779Z,127.00
2022-10-01T00:48:07.779Z,116.20
2022-10-01T00:50:40.402Z,120.80
2022-10-01T00:53:13.545Z,115.40
2022-10-01T00:55:45.374Z,116.60
2022-10-01T00:58:17.707Z,112.60
2022-10-01T01:00:51.308Z,118.40
2022-10-01T01:03:22.667Z,124.20
2022-10-01T01:05:53.829Z,121.60
2022-10-01T01:08:26.071Z,126.00
2022-10-01T01:11:03.318Z,120.20
2022-10-01T01:13:38.024Z,122.60
2022-10-01T01:16:13.563Z,121.40
2022-10-01T01:18:46.581Z,131.80
2022-10-01T01:21:24.145Z,116.00
2022-10-01T01:24:14.226Z,127.20
2022-10-01T01:26:59.065Z,113.60
2022-10-01T01:29:36.185Z,116.60
2022-10-01T01:32:14.659Z,117.00
2022-10-01T01:34:48.180Z,102.80
2022-10-01T01:37:21.402Z,109.20
2022-10-01T01:39:55.182Z,117.00
2022-10-01T01:42:29.792Z,116.40
2022-10-01T01:45:04.982Z,110.80
2022-10-01T01:47:38.161Z,107.00
2022-10-01T01:50:10.700Z,113.40
2022-10-01T01:52:42.777Z,110.00
2022-10-01T01:55:14.653Z,116.80
2022-10-01T01:57:47.287Z,110.20
2022-10-01T02:00:20.343Z,113.20
2022-10-01T02:02:53.251Z,108.60
2022-10-01T02:05:27.649Z,106.60
2022-10-01T02:08:13.737Z,110.60
2022-10-01T02:10:55.595Z,106.20
2022-10-01T02:13:32.706Z,118.40
2022-10-01T02:16:15.806Z,125.80
2022-10-01T02:18:50.585Z,117.20
2022-10-01T02:21:24.199Z,124.80
2022-10-01T02:23:59.575Z,112.00
2022-10-01T02:26:32.452Z,119.20
2022-10-01T02:29:07.066Z,112.00
2022-10-01T02:31:40.866Z,114.00
2022-10-01T02:34:13.733Z,121.20
2022-10-01T02:36:48.757Z,118.20
2022-10-01T02:39:21.463Z,114.80
2022-10-01T02:41:54.783Z,121.60
2022-10-01T02:44:30.784Z,113.40
2022-10-01T02:47:06.764Z,104.60
2022-10-01T02:49:39.314Z,99.40
2022-10-01T02:52:15.598Z,95.60
2022-10-01T02:54:50.830Z,97.75
2022-10-01T02:57:29.071Z,94.25
2022-10-01T03:00:01.725Z,99.75
2022-10-01T03:02:35.005Z,97.75
2022-10-01T03:05:06.305Z,93.00
2022-10-01T03:07:38.734Z,91.00
2022-10-01T03:10:11.053Z,90.00
2022-10-01T03:12:46.767Z,93.00
2022-10-01T03:15:20.623Z,89.25
2022-10-01T03:17:56.126Z,91.25
2022-10-01T03:20:27.987Z,96.50
2022-10-01T03:22:59.430Z,94.00
2022-10-01T03:25:30.862Z,90.25
2022-10-01T03:28:03.390Z,95.00
2022-10-01T03:30:35.444Z,97.50
2022-10-01T03:33:08.526Z,92.50
2022-10-01T03:35:40.132Z,93.50
2022-10-01T03:38:11.965Z,90.25
2022-10-01T03:40:43.214Z,98.00
2022-10-01T03:43:14.828Z,96.50
2022-10-01T03:45:46.028Z,94.75
2022-10-01T03:48:19.817Z,90.00
2022-10-01T03:50:56.745Z,88.25
2022-10-01T03:53:29.469Z,91.50
2022-10-01T03:56:00.917Z,85.25
2022-10-01T03:58:32.753Z,94.75
2022-10-01T04:01:04.407Z,90.00
2022-10-01T04:03:37.995Z,88.75
2022-10-01T04:06:10.090Z,89.50
2022-10-01T04:08:41.976Z,87.50
2022-10-01T04:11:14.691Z,84.50
2022-10-01T04:13:46.449Z,84.33
2022-10-01T04:16:18.877Z,91.00
2022-10-01T04:18:51.623Z,91.25
2022-10-01T04:21:22.874Z,94.25
2022-10-01T04:23:55.223Z,92.25
2022-10-01T04:26:26.679Z,91.75
2022-10-01T04:28:58.564Z,87.25
2022-10-01T04:31:36.182Z,90.25
2022-10-01T04:34:09.385Z,91.25
2022-10-01T04:36:40.879Z,88.75
2022-10-01T04:39:12.752Z,92.00
2022-10-01T04:41:44.258Z,92.50
2022-10-01T04:44:16.156Z,90.25
2022-10-01T04:46:47.569Z,92.50
2022-10-01T04:49:20.676Z,91.25
2022-10-01T04:51:52.360Z,92.00
2022-10-01T04:54:23.914Z,95.25
2022-10-01T04:56:55.173Z,89.00
2022-10-01T04:59:27.287Z,93.75
2022-10-01T05:01:59.081Z,86.50
2022-10-01T05:04:32.210Z,88.50
2022-10-01T05:07:03.487Z,94.75
2022-10-01T05:09:35.314Z,89.50
2022-10-01T05:12:06.824Z,87.25
2022-10-01T05:14:38.347Z,88.50
2022-10-01T05:17:10.603Z,89.25
2022-10-01T05:19:44.366Z,90.50
2022-10-01T05:22:16.103Z,87.75
2022-10-01T05:24:48.999Z,86.50
2022-10-01T05:27:20.129Z,82.50
2022-10-01T05:29:52.358Z,82.25
2022-10-01T05:32:23.602Z,86.00
2022-10-01T05:34:56.542Z,82.75
2022-10-01T05:37:28.381Z,86.50
2022-10-01T05:39:59.634Z,82.00
2022-10-01T05:42:31.297Z,83.00
2022-10-01T05:45:06.716Z,83.00
2022-10-01T05:47:38.499Z,84.50
2022-10-01T05:50:12.122Z,80.00
2022-10-01T05:52:44.390Z,82.00
2022-10-01T05:55:16.367Z,82.00
2022-10-01T05:57:48.649Z,76.75
2022-10-01T06:00:23.229Z,78.75
2022-10-01T06:02:55.504Z,79.50
2022-10-01T06:05:28.810Z,77.25
2022-10-01T06:08:00.402Z,73.75
2022-10-01T06:10:32.506Z,77.75
2022-10-01T06:13:04.237Z,69.75
2022-10-01T06:15:39.059Z,79.50
2022-10-01T06:18:11.873Z,67.25
2022-10-01T06:20:45.071Z,73.75
2022-10-01T06:23:16.983Z,67.75
2022-10-01T06:25:49.038Z,68.75
2022-10-01T06:28:21.113Z,67.25
2022-10-01T06:30:53.082Z,58.25
2022-10-01T06:33:24.941Z,68.75
2022-10-01T06:35:58.726Z,71.00
2022-10-01T06:38:30.288Z,75.00
2022-10-01T06:41:02.851Z,74.75
2022-10-01T06:43:34.665Z,73.50
2022-10-01T06:46:06.305Z,70.75
2022-10-01T06:48:38.047Z,71.00
2022-10-01T06:51:10.955Z,76.50
2022-10-01T06:53:42.523Z,74.25
2022-10-01T06:56:14.813Z,70.25
2022-10-01T06:58:46.375Z,75.75
2022-10-01T07:01:21.267Z,71.00
2022-10-01T07:03:55.679Z,74.00
2022-10-01T07:06:29.630Z,78.00
2022-10-01T07:09:00.879Z,75.00
2022-10-01T07:11:32.989Z,80.50
2022-10-01T07:14:04.238Z,81.75
2022-10-01T07:16:36.178Z,81.75
2022-10-01T07:19:07.776Z,79.50
2022-10-01T07:21:40.728Z,77.75
2022-10-01T07:24:12.165Z,81.75
2022-10-01T07:26:44.067Z,77.75
2022-10-01T07:29:15.932Z,77.50
2022-10-01T07:31:47.573Z,75.00
2022-10-01T07:34:19.124Z,77.75
2022-10-01T07:36:52.265Z,83.25
2022-10-01T07:39:24.110Z,73.25
2022-10-01T07:41:55.665Z,75.25
2022-10-01T07:44:26.733Z,77.75
2022-10-01T07:46:57.895Z,74.75
2022-10-01T07:49:30.226Z,78.00
2022-10-01T07:52:03.093Z,77.00
2022-10-01T07:54:34.839Z,74.00
2022-10-01T07:57:06.296Z,79.50
2022-10-01T07:59:39.638Z,75.25
2022-10-01T08:02:14.529Z,83.75
2022-10-01T08:05:02.592Z,69.25
2022-10-01T08:07:37.257Z,75.00
2022-10-01T08:10:09.431Z,72.75
2022-10-01T08:12:44.191Z,80.00
2022-10-01T08:15:17.792Z,78.25
2022-10-01T08:17:49.720Z,78.25
2022-10-01T08:20:23.100Z,78.75
2022-10-01T08:22:57.876Z,81.00
2022-10-01T08:25:30.117Z,78.25
2022-10-01T08:28:02.945Z,78.00
2022-10-01T08:30:35.528Z,78.75
2022-10-01T08:33:07.069Z,78.00
2022-10-01T08:35:41.838Z,73.00
2022-10-01T08:38:15.262Z,80.25
2022-10-01T08:40:49.465Z,80.00
2022-10-01T08:43:34.111Z,80.00
2022-10-01T08:46:08.171Z,77.75
2022-10-01T08:48:48.322Z,76.00
2022-10-01T08:51:24.024Z,77.00
2022-10-01T08:53:59.985Z,75.75
2022-10-01T08:56:34.149Z,76.00
2022-10-01T08:59:08.527Z,77.00
2022-10-01T09:01:40.899Z,74.25
2022-10-01T09:04:12.740Z,77.50
2022-10-01T09:06:45.655Z,76.50
2022-10-01T09:09:34.550Z,74.75
2022-10-01T09:12:16.097Z,77.25
2022-10-01T09:15:01.830Z,75.75
2022-10-01T09:17:43.108Z,75.00
2022-10-01T09:20:19.556Z,75.25
2022-10-01T09:22:57.877Z,74.50
2022-10-01T09:25:31.615Z,72.25
2022-10-01T09:28:06.332Z,61.75
2022-10-01T09:30:40.102Z,75.25
2022-10-01T09:33:16.795Z,73.00
2022-10-01T09:35:51.630Z,73.00
2022-10-01T09:38:26.500Z,73.00
2022-10-01T09:41:00.416Z,69.50
2022-10-01T09:43:32.923Z,65.50
2022-10-01T09:46:04.946Z,65.00
2022-10-01T09:48:40.055Z,64.25
2022-10-01T09:51:14.058Z,58.60
2022-10-01T09:53:49.664Z,58.00
2022-10-01T09:56:25.217Z,50.80
2022-10-01T09:58:58.170Z,48.60
2022-10-01T10:01:34.029Z,56.40
2022-10-01T10:04:05.994Z,58.00
2022-10-01T10:06:38.015Z,52.60
2022-10-01T10:09:17.961Z,52.40
2022-10-01T10:11:52.263Z,54.60
2022-10-01T10:14:26.943Z,56.40
2022-10-01T10:16:58.991Z,43.40
2022-10-01T10:19:32.537Z,54.00
2022-10-01T10:22:21.055Z,58.00
2022-10-01T10:24:52.825Z,53.80
2022-10-01T10:27:28.447Z,58.80
2022-10-01T10:30:07.196Z,53.20
2022-10-01T10:32:38.387Z,59.20
2022-10-01T10:35:14.754Z,56.60
2022-10-01T10:37:50.402Z,61.20
2022-10-01T10:40:28.476Z,58.80
2022-10-01T10:43:04.818Z,47.40
2022-10-01T10:45:38.886Z,60.40
2022-10-01T10:48:15.310Z,56.20
2022-10-01T10:50:48.043Z,55.00
2022-10-01T10:53:30.855Z,60.00
2022-10-01T10:56:03.333Z,56.80
2022-10-01T10:58:39.445Z,58.60
2022-10-01T11:01:12.900Z,50.25
2022-10-01T11:03:46.706Z,59.50
2022-10-01T11:06:20.344Z,56.00
2022-10-01T11:08:58.679Z,71.25
2022-10-01T11:11:42.215Z,57.00
2022-10-01T11:14:23.935Z,91.60
2022-10-01T11:17:01.811Z,81.50
2022-10-01T11:19:43.049Z,247.50
2022-10-01T11:22:21.006Z,136.20
2022-10-01T11:25:04.016Z,60.40
2022-10-01T11:27:42.221Z,133.75
2022-10-01T11:30:18.908Z,161.25
2022-10-01T11:32:54.455Z,176.25
2022-10-01T11:35:30.700Z,168.50
2022-10-01T11:38:18.635Z,156.67
2022-10-01T11:40:53.327Z,225.00
2022-10-01T11:43:26.813Z,288.20
2022-10-01T11:46:02.424Z,105.50
2022-10-01T11:48:38.017Z,64.20
2022-10-01T11:51:14.025Z,72.75
2022-10-01T11:53:47.988Z,59.50
2022-10-01T11:56:39.601Z,67.00
2022-10-01T11:59:13.254Z,55.00
2022-10-01T12:01:49.011Z,60.00
2022-10-01T12:04:29.791Z,64.25
2022-10-01T12:07:04.186Z,67.50
2022-10-01T12:09:41.425Z,67.00
2022-10-01T12:12:15.866Z,62.25
2022-10-01T12:14:50.511Z,63.75
2022-10-01T12:17:26.314Z,252.60
2022-10-01T12:20:01.316Z,238.80
2022-10-01T12:22:34.215Z,70.25
2022-10-01T12:25:05.990Z,73.20
2022-10-01T12:27:46.442Z,212.60
2022-10-01T12:30:20.896Z,89.40
2022-10-01T12:33:06.179Z,64.00
2022-10-01T12:35:43.093Z,72.25
2022-10-01T12:38:21.304Z,73.00
2022-10-01T12:40:56.846Z,74.75
2022-10-01T12:43:50.341Z,67.75
2022-10-01T12:46:27.716Z,140.80
2022-10-01T12:49:04.479Z,84.40
2022-10-01T12:51:43.737Z,67.20
2022-10-01T12:54:35.574Z,59.50
2022-10-01T12:57:09.339Z,96.20
2022-10-01T12:59:50.801Z,63.00
2022-10-01T13:02:34.987Z,54.60
2022-10-01T13:05:16.475Z,78.20
2022-10-01T13:07:58.060Z,189.60
2022-10-01T13:10:38.528Z,135.40
2022-10-01T13:13:15.145Z,69.75
2022-10-01T13:15:50.892Z,94.40
2022-10-01T13:18:27.652Z,62.00
2022-10-01T13:21:04.236Z,67.75
2022-10-01T13:23:40.994Z,61.00
2022-10-01T13:26:14.552Z,89.80
2022-10-01T13:28:56.022Z,158.25
2022-10-01T13:31:36.312Z,110.75
2022-10-01T13:34:23.564Z,54.25
2022-10-01T13:36:57.133Z,65.00
2022-10-01T13:39:30.154Z,66.50
2022-10-01T13:42:01.907Z,57.50
2022-10-01T13:44:36.888Z,72.75
2022-10-01T13:47:11.456Z,73.75
2022-10-01T13:49:44.468Z,76.25
2022-10-01T13:52:24.952Z,75.50
2022-10-01T13:54:58.661Z,73.50
2022-10-01T13:57:32.156Z,69.50
2022-10-01T14:00:09.557Z,76.00
2022-10-01T14:02:42.137Z,77.75
2022-10-01T14:05:26.561Z,77.25
2022-10-01T14:08:03.151Z,71.75
2022-10-01T14:10:37.398Z,76.25
2022-10-01T14:13:25.915Z,70.50
2022-10-01T14:16:04.547Z,82.50
2022-10-01T14:18:38.290Z,81.50
2022-10-01T14:21:17.144Z,76.75
2022-10-01T14:23:55.513Z,76.25
2022-10-01T14:26:30.610Z,86.00
2022-10-01T14:29:07.262Z,83.00
2022-10-01T14:31:48.777Z,79.25
2022-10-01T14:34:30.565Z,84.00
2022-10-01T14:37:02.479Z,88.25
2022-10-01T14:39:35.630Z,87.50
2022-10-01T14:42:17.095Z,85.50
2022-10-01T14:44:50.054Z,89.50
2022-10-01T14:47:22.987Z,91.00
2022-10-01T14:49:55.014Z,91.25
2022-10-01T14:52:27.727Z,89.50
2022-10-01T14:55:03.985Z,91.25
2022-10-01T14:57:37.546Z,91.50
2022-10-01T15:00:12.399Z,94.75
2022-10-01T15:02:47.642Z,92.20
2022-10-01T15:05:25.465Z,93.40
2022-10-01T15:07:56.743Z,95.00
2022-10-01T15:10:32.254Z,99.00
2022-10-01T15:13:03.526Z,100.60
2022-10-01T15:15:37.111Z,100.80
2022-10-01T15:18:09.159Z,109.20
2022-10-01T15:20:40.199Z,99.80
2022-10-01T15:23:12.102Z,121.80
2022-10-01T15:25:47.485Z,114.40
2022-10-01T15:28:19.214Z,128.60
2022-10-01T15:30:51.062Z,122.20
2022-10-01T15:33:28.955Z,118.40
2022-10-01T15:36:01.458Z,128.80
2022-10-01T15:38:34.173Z,129.20
2022-10-01T15:41:30.480Z,138.60
2022-10-01T15:44:01.904Z,149.00
2022-10-01T15:46:36.369Z,133.20
2022-10-01T15:49:15.355Z,148.40
2022-10-01T15:52:13.002Z,132.80
2022-10-01T15:54:46.027Z,120.40
2022-10-01T15:57:24.179Z,110.20
2022-10-01T15:59:57.552Z,110.40
2022-10-01T16:02:31.282Z,117.00
2022-10-01T16:05:07.273Z,111.20
2022-10-01T16:07:40.870Z,112.60
2022-10-01T16:10:19.742Z,109.00
2022-10-01T16:12:52.760Z,115.20
2022-10-01T16:15:28.766Z,106.40
2022-10-01T16:18:00.594Z,116.20
2022-10-01T16:20:39.625Z,129.20
2022-10-01T16:23:28.790Z,110.00
2022-10-01T16:26:00.926Z,119.40
2022-10-01T16:28:35.966Z,130.00
2022-10-01T16:31:07.940Z,116.80
2022-10-01T16:33:39.342Z,121.80
2022-10-01T16:36:12.357Z,119.40
2022-10-01T16:38:44.041Z,118.00
2022-10-01T16:41:19.508Z,128.60
2022-10-01T16:43:53.139Z,125.20
2022-10-01T16:46:25.163Z,120.40
2022-10-01T16:48:56.507Z,118.60
2022-10-01T16:51:28.563Z,122.00
2022-10-01T16:54:01.446Z,109.20
2022-10-01T16:56:33.282Z,116.40
2022-10-01T16:59:06.212Z,106.60
2022-10-01T17:01:37.833Z,113.80
2022-10-01T17:04:09.061Z,108.40
2022-10-01T17:06:41.686Z,109.60
2022-10-01T17:09:13.456Z,98.00
2022-10-01T17:11:44.989Z,103.20
2022-10-01T17:14:18.797Z,102.80
2022-10-01T17:16:52.161Z,108.60
2022-10-01T17:19:23.391Z,97.00
2022-10-01T17:21:54.849Z,98.80
2022-10-01T17:24:26.325Z,99.20
2022-10-01T17:26:57.278Z,103.80
2022-10-01T17:29:32.374Z,106.80
2022-10-01T17:32:04.135Z,105.80
2022-10-01T17:34:37.661Z,102.80
2022-10-01T17:37:08.742Z,101.40
2022-10-01T17:39:39.885Z,92.60
2022-10-01T17:42:12.209Z,101.20
2022-10-01T17:44:45.617Z,98.80
2022-10-01T17:47:16.631Z,99.40
2022-10-01T17:49:48.057Z,106.00
2022-10-01T17:52:19.576Z,101.60
2022-10-01T17:54:51.037Z,97.40
2022-10-01T17:57:22.807Z,98.80
2022-10-01T17:59:55.682Z,97.60
2022-10-01T18:02:43.122Z,93.40
2022-10-01T18:05:16.126Z,106.60
2022-10-01T18:07:47.816Z,97.60
2022-10-01T18:10:19.706Z,96.00
2022-10-01T18:12:51.353Z,104.20
2022-10-01T18:15:25.573Z,100.20
2022-10-01T18:19:10.311Z,98.00
2022-10-01T18:20:48.252Z,98.20
2022-10-01T18:23:19.242Z,95.80
2022-10-01T18:25:50.849Z,102.20
2022-10-01T18:28:24.174Z,99.40
2022-10-01T18:31:13.287Z,93.60
2022-10-01T18:33:47.032Z,97.00
2022-10-01T18:36:22.817Z,93.80
2022-10-01T18:38:57.145Z,95.60
2022-10-01T18:41:32.717Z,98.40
2022-10-01T18:44:03.892Z,101.60
2022-10-01T18:46:44.700Z,96.80
2022-10-01T18:49:24.417Z,101.20
2022-10-01T18:52:03.115Z,96.00
2022-10-01T18:54:39.289Z,109.60
2022-10-01T18:57:18.239Z,101.40
2022-10-01T19:00:10.168Z,113.60
2022-10-01T19:02:59.692Z,101.40
2022-10-01T19:05:47.414Z,102.40
2022-10-01T19:08:24.978Z,98.20
2022-10-01T19:11:01.533Z,98.00
2022-10-01T19:13:36.901Z,99.20
2022-10-01T19:16:12.676Z,100.40
2022-10-01T19:18:56.675Z,98.60
2022-10-01T19:21:33.048Z,100.60
2022-10-01T19:24:21.945Z,97.20
2022-10-01T19:26:59.115Z,96.20
2022-10-01T19:29:37.113Z,104.40
2022-10-01T19:32:12.791Z,105.60
2022-10-01T19:34:46.135Z,101.20
2022-10-01T19:37:22.534Z,96.60
2022-10-01T19:39:54.551Z,101.60
2022-10-01T19:42:29.951Z,101.20
2022-10-01T19:45:03.759Z,102.40
2022-10-01T19:47:41.604Z,101.80
2022-10-01T19:50:21.332Z,105.80
2022-10-01T19:52:55.730Z,102.00
2022-10-01T19:55:28.077Z,97.00
2022-10-01T19:57:58.941Z,100.40
2022-10-01T20:00:31.147Z,94.60
2022-10-01T20:03:06.579Z,97.80
2022-10-01T20:05:45.615Z,101.60
2022-10-01T20:08:23.470Z,96.40
2022-10-01T20:10:57.370Z,100.00
2022-10-01T20:13:39.222Z,97.20
2022-10-01T20:16:16.108Z,105.00
2022-10-01T20:18:52.269Z,98.20
2022-10-01T20:21:28.615Z,98.40
2022-10-01T20:24:10.523Z,98.60
2022-10-01T20:26:46.444Z,98.80
2022-10-01T20:29:24.379Z,96.00
2022-10-01T20:31:58.892Z,98.40
2022-10-01T20:34:34.656Z,99.20
2022-10-01T20:37:13.255Z,104.00
2022-10-01T20:39:49.669Z,103.40
2022-10-01T20:42:25.575Z,100.50
2022-10-01T20:44:57.508Z,110.60
2022-10-01T20:47:31.038Z,104.00
2022-10-01T20:50:09.445Z,95.80
2022-10-01T20:52:43.475Z,110.80
2022-10-01T20:55:19.635Z,118.20
2022-10-01T20:57:54.702Z,109.60
2022-10-01T21:00:26.337Z,111.20
2022-10-01T21:03:00.167Z,102.80
2022-10-01T21:05:33.662Z,102.80
2022-10-01T21:08:06.660Z,108.20
2022-10-01T21:10:43.997Z,105.80
2022-10-01T21:13:19.098Z,105.20
2022-10-01T21:15:57.277Z,106.60
2022-10-01T21:18:38.878Z,110.40
2022-10-01T21:21:18.898Z,103.80
2022-10-01T21:23:59.118Z,113.80
2022-10-01T21:26:38.481Z,105.20
2022-10-01T21:29:27.730Z,100.80
2022-10-01T21:32:06.549Z,103.00
2022-10-01T21:34:44.906Z,98.80
2022-10-01T21:37:17.925Z,104.60
2022-10-01T21:40:02.194Z,100.60
2022-10-01T21:42:38.833Z,98.80
2022-10-01T21:45:16.874Z,102.20
2022-10-01T21:48:12.695Z,113.00
2022-10-01T21:50:52.154Z,101.40
2022-10-01T21:53:41.512Z,102.00
2022-10-01T21:56:28.099Z,108.80
2022-10-01T21:59:08.071Z,114.00
2022-10-01T22:01:52.278Z,104.40
2022-10-01T22:04:29.369Z,103.20
2022-10-01T22:07:05.696Z,104.80
2022-10-01T22:09:41.514Z,120.40
2022-10-01T22:12:12.619Z,112.00
2022-10-01T22:14:48.137Z,106.40
2022-10-01T22:17:20.962Z,106.60
2022-10-01T22:19:53.368Z,105.80
2022-10-01T22:22:27.021Z,101.80
2022-10-01T22:25:00.557Z,104.80
2022-10-01T22:27:35.233Z,108.80
2022-10-01T22:33:21.401Z,118.20
2022-10-01T22:35:56.710Z,111.80
2022-10-01T22:38:30.168Z,112.60
2022-10-01T22:41:05.857Z,112.40
2022-10-01T22:43:39.583Z,103.60
2022-10-01T22:46:22.080Z,114.60
2022-10-01T22:48:57.338Z,108.00
2022-10-01T22:51:37.971Z,113.40
2022-10-01T22:54:26.441Z,110.80
2022-10-01T22:57:04.024Z,107.40
2022-10-01T22:59:43.049Z,113.20
2022-10-01T23:02:22.066Z,112.20
2022-10-01T23:04:59.785Z,115.80
2022-10-01T23:07:37.930Z,107.00
2022-10-01T23:10:14.453Z,111.40
2022-10-01T23:12:51.856Z,113.20
2022-10-01T23:15:29.760Z,116.80
2022-10-01T23:18:13.262Z,111.80
2022-10-01T23:20:50.743Z,101.80
2022-10-01T23:23:32.226Z,103.20
2022-10-01T23:26:26.775Z,105.20
2022-10-01T23:29:13.252Z,105.20
2022-10-01T23:31:56.327Z,107.80
2022-10-01T23:34:37.873Z,105.40
2022-10-01T23:37:20.933Z,106.80
2022-10-01T23:39:56.644Z,106.60
2022-10-01T23:42:37.574Z,110.40
2022-10-01T23:45:20.286Z,107.20
2022-10-01T23:48:00.844Z,115.40
2022-10-01T23:50:41.872Z,106.60
2022-10-01T23:53:19.045Z,118.20
2022-10-01T23:56:16.463Z,110.00
2022-10-01T23:58:52.764Z,112.40
